Boardman, Wisconsin
Current Conditions -  °F | °C
As of 2:11 PM on Monday 24 Nov 2014 (Local Time) from K21D Reporting Station
Overcast Overcast  
Wind Chill: 11°   Ceiling: 1900
Heat Index: 23°   Visibility: 10mi
Dew Point: 18°   Wind: 14mph
Humidity: 80%   Direction: 310°NW
Pressure: 29.51"   Gusts: 22mph
Location:  44.9743°N, 92.6899°W
Report Text: K21D 242011Z AUTO 31012G19KT 10SM OVC019 M05/M08 A2951 RMK AO2
Loading
Personal Weather Stations






























Interactive Weather Map New forecast layout! Learn more

10-Day Weather Forecast

Advertisements
Track Severe Weather on mobile